sensor_id;sensor_type;location;lat;lon;timestamp;temperature;humidity
22984;DHT22;11658;48.908;9.140;2023-03-21T04:00:56;9.30;99.90
22984;DHT22;11658;48.908;9.140;2023-03-21T04:03:22;9.40;99.90
22984;DHT22;11658;48.908;9.140;2023-03-21T04:05:47;9.40;99.90
22984;DHT22;11658;48.908;9.140;2023-03-21T04:08:14;9.30;99.90
22984;DHT22;11658;48.908;9.140;2023-03-21T04:10:41;9.30;99.90
22984;DHT22;11658;48.908;9.140;2023-03-21T04:13:07;9.30;99.90
22984;DHT22;11658;48.908;9.140;2023-03-21T04:15:33;9.30;99.90
22984;DHT22;11658;48.908;9.140;2023-03-21T04:17:59;9.30;99.90
22984;DHT22;11658;48.908;9.140;2023-03-21T04:20:24;9.10;99.90
22984;DHT22;11658;48.908;9.140;2023-03-21T04:22:50;9.10;99.90
22984;DHT22;11658;48.908;9.140;2023-03-21T04:25:16;9.10;99.90
22984;DHT22;11658;48.908;9.140;2023-03-21T04:27:42;9.10;99.90
22984;DHT22;11658;48.908;9.140;2023-03-21T04:30:10;9.20;99.90
22984;DHT22;11658;48.908;9.140;2023-03-21T04:32:37;9.30;99.90
22984;DHT22;11658;48.908;9.140;2023-03-21T04:35:05;9.30;99.90
22984;DHT22;11658;48.908;9.140;2023-03-21T04:37:30;9.30;99.90
22984;DHT22;11658;48.908;9.140;2023-03-21T04:39:58;9.20;99.90
22984;DHT22;11658;48.908;9.140;2023-03-21T04:42:24;9.20;99.90
22984;DHT22;11658;48.908;9.140;2023-03-21T04:44:49;9.20;99.90
22984;DHT22;11658;48.908;9.140;2023-03-21T04:47:16;9.20;99.90
22984;DHT22;11658;48.908;9.140;2023-03-21T04:49:45;9.20;99.90
22984;DHT22;11658;48.908;9.140;2023-03-21T04:52:13;9.30;99.90
22984;DHT22;11658;48.908;9.140;2023-03-21T04:54:38;9.20;99.90
22984;DHT22;11658;48.908;9.140;2023-03-21T04:57:04;9.20;99.90
22984;DHT22;11658;48.908;9.140;2023-03-21T04:59:29;9.10;99.90
22984;DHT22;11658;48.908;9.140;2023-03-21T05:01:55;9.20;99.90
22984;DHT22;11658;48.908;9.140;2023-03-21T05:04:23;8.50;99.90
22984;DHT22;11658;48.908;9.140;2023-03-21T05:06:49;9.20;99.90
22984;DHT22;11658;48.908;9.140;2023-03-21T05:09:14;9.30;99.90
22984;DHT22;11658;48.908;9.140;2023-03-21T05:11:40;9.30;99.90
22984;DHT22;11658;48.908;9.140;2023-03-21T05:14:08;9.30;99.90
22984;DHT22;11658;48.908;9.140;2023-03-21T05:16:39;9.30;99.90
22984;DHT22;11658;48.908;9.140;2023-03-21T05:19:13;9.30;99.90
22984;DHT22;11658;48.908;9.140;2023-03-21T05:21:38;9.30;99.90
22984;DHT22;11658;48.908;9.140;2023-03-21T05:24:08;9.20;99.90
22984;DHT22;11658;48.908;9.140;2023-03-21T05:26:38;9.20;99.90
22984;DHT22;11658;48.908;9.140;2023-03-21T05:29:04;9.20;99.90
22984;DHT22;11658;48.908;9.140;2023-03-21T05:31:29;9.20;99.90
22984;DHT22;11658;48.908;9.140;2023-03-21T05:33:55;9.20;99.90
22984;DHT22;11658;48.908;9.140;2023-03-21T05:36:20;9.20;99.90
22984;DHT22;11658;48.908;9.140;2023-03-21T05:38:46;9.20;99.90
22984;DHT22;11658;48.908;9.140;2023-03-21T05:41:13;9.20;99.90
22984;DHT22;11658;48.908;9.140;2023-03-21T05:43:38;9.20;99.90
22984;DHT22;11658;48.908;9.140;2023-03-21T05:46:04;10.60;99.90
22984;DHT22;11658;48.908;9.140;2023-03-21T05:48:30;9.20;99.90
22984;DHT22;11658;48.908;9.140;2023-03-21T05:50:56;9.20;99.90
22984;DHT22;11658;48.908;9.140;2023-03-21T05:53:21;9.20;99.90
22984;DHT22;11658;48.908;9.140;2023-03-21T05:55:47;9.20;99.90
22984;DHT22;11658;48.908;9.140;2023-03-21T05:58:12;9.30;99.90
22984;DHT22;11658;48.908;9.140;2023-03-21T06:00:38;9.40;99.90
22984;DHT22;11658;48.908;9.140;2023-03-21T06:03:04;9.60;99.90
22984;DHT22;11658;48.908;9.140;2023-03-21T06:05:30;9.60;99.90
22984;DHT22;11658;48.908;9.140;2023-03-21T06:07:55;9.70;99.90
22984;DHT22;11658;48.908;9.140;2023-03-21T06:10:21;9.80;99.90
22984;DHT22;11658;48.908;9.140;2023-03-21T06:12:47;9.80;99.90
22984;DHT22;11658;48.908;9.140;2023-03-21T06:15:13;9.80;99.90
22984;DHT22;11658;48.908;9.140;2023-03-21T06:17:38;9.80;99.90
22984;DHT22;11658;48.908;9.140;2023-03-21T06:20:05;9.70;99.90
22984;DHT22;11658;48.908;9.140;2023-03-21T06:22:32;9.80;99.90
22984;DHT22;11658;48.908;9.140;2023-03-21T06:24:58;9.70;99.90
22984;DHT22;11658;48.908;9.140;2023-03-21T06:27:24;9.80;99.90
22984;DHT22;11658;48.908;9.140;2023-03-21T06:29:50;9.80;99.90
22984;DHT22;11658;48.908;9.140;2023-03-21T06:32:15;9.70;99.90
22984;DHT22;11658;48.908;9.140;2023-03-21T06:34:41;9.70;99.90
22984;DHT22;11658;48.908;9.140;2023-03-21T06:37:07;9.60;99.90
22984;DHT22;11658;48.908;9.140;2023-03-21T06:39:33;9.70;99.90
22984;DHT22;11658;48.908;9.140;2023-03-21T06:42:00;9.80;99.90
22984;DHT22;11658;48.908;9.140;2023-03-21T06:44:26;9.90;99.90
22984;DHT22;11658;48.908;9.140;2023-03-21T06:46:52;10.00;99.90
22984;DHT22;11658;48.908;9.140;2023-03-21T06:49:17;10.00;99.90
22984;DHT22;11658;48.908;9.140;2023-03-21T06:51:43;10.10;99.90
22984;DHT22;11658;48.908;9.140;2023-03-21T06:54:09;10.30;99.90
22984;DHT22;11658;48.908;9.140;2023-03-21T06:56:35;10.40;99.90
22984;DHT22;11658;48.908;9.140;2023-03-21T06:59:01;10.40;99.90
22984;DHT22;11658;48.908;9.140;2023-03-21T07:01:27;10.40;99.90
22984;DHT22;11658;48.908;9.140;2023-03-21T07:03:55;10.40;99.90
22984;DHT22;11658;48.908;9.140;2023-03-21T07:06:23;10.50;99.90
22984;DHT22;11658;48.908;9.140;2023-03-21T07:08:51;10.60;99.90
22984;DHT22;11658;48.908;9.140;2023-03-21T07:11:17;10.70;99.90
22984;DHT22;11658;48.908;9.140;2023-03-21T07:13:43;10.80;99.90
22984;DHT22;11658;48.908;9.140;2023-03-21T07:16:09;10.70;99.90
22984;DHT22;11658;48.908;9.140;2023-03-21T07:18:35;10.70;99.90
22984;DHT22;11658;48.908;9.140;2023-03-21T07:21:01;10.80;99.90
22984;DHT22;11658;48.908;9.140;2023-03-21T07:23:27;11.00;99.90
22984;DHT22;11658;48.908;9.140;2023-03-21T07:25:53;11.00;99.90
22984;DHT22;11658;48.908;9.140;2023-03-21T07:28:19;11.00;99.90
22984;DHT22;11658;48.908;9.140;2023-03-21T07:30:51;11.00;99.90
22984;DHT22;11658;48.908;9.140;2023-03-21T07:33:17;11.10;99.90
22984;DHT22;11658;48.908;9.140;2023-03-21T07:35:42;11.20;99.90
22984;DHT22;11658;48.908;9.140;2023-03-21T07:38:08;11.30;99.90
22984;DHT22;11658;48.908;9.140;2023-03-21T07:40:34;11.50;99.90
22984;DHT22;11658;48.908;9.140;2023-03-21T07:42:59;11.50;99.90
22984;DHT22;11658;48.908;9.140;2023-03-21T07:45:25;11.50;99.90
22984;DHT22;11658;48.908;9.140;2023-03-21T07:47:52;11.60;99.90
22984;DHT22;11658;48.908;9.140;2023-03-21T07:50:18;11.70;99.90
22984;DHT22;11658;48.908;9.140;2023-03-21T07:52:44;11.70;99.90
22984;DHT22;11658;48.908;9.140;2023-03-21T07:55:10;11.80;99.90
22984;DHT22;11658;48.908;9.140;2023-03-21T07:57:36;11.90;99.90
22984;DHT22;11658;48.908;9.140;2023-03-21T08:00:03;12.00;99.90
22984;DHT22;11658;48.908;9.140;2023-03-21T08:02:32;11.90;99.90
22984;DHT22;11658;48.908;9.140;2023-03-21T08:04:57;11.80;99.90
22984;DHT22;11658;48.908;9.140;2023-03-21T08:07:23;11.90;99.90
22984;DHT22;11658;48.908;9.140;2023-03-21T08:09:49;12.10;99.90
22984;DHT22;11658;48.908;9.140;2023-03-21T08:12:14;12.10;99.90
22984;DHT22;11658;48.908;9.140;2023-03-21T08:14:41;12.10;99.90
22984;DHT22;11658;48.908;9.140;2023-03-21T08:17:06;12.00;99.90
22984;DHT22;11658;48.908;9.140;2023-03-21T08:19:34;11.80;99.90
22984;DHT22;11658;48.908;9.140;2023-03-21T08:22:00;12.00;99.90
22984;DHT22;11658;48.908;9.140;2023-03-21T08:24:27;12.10;99.90
22984;DHT22;11658;48.908;9.140;2023-03-21T08:26:53;12.30;99.90
22984;DHT22;11658;48.908;9.140;2023-03-21T08:29:19;12.50;99.90
22984;DHT22;11658;48.908;9.140;2023-03-21T08:31:46;12.30;99.90
22984;DHT22;11658;48.908;9.140;2023-03-21T08:34:11;12.40;99.90
22984;DHT22;11658;48.908;9.140;2023-03-21T08:36:38;12.50;99.90
22984;DHT22;11658;48.908;9.140;2023-03-21T08:39:04;12.60;99.90
22984;DHT22;11658;48.908;9.140;2023-03-21T08:41:34;12.80;99.90
22984;DHT22;11658;48.908;9.140;2023-03-21T08:44:01;12.90;99.90
22984;DHT22;11658;48.908;9.140;2023-03-21T08:46:27;12.90;99.90
22984;DHT22;11658;48.908;9.140;2023-03-21T08:48:53;13.20;99.90
22984;DHT22;11658;48.908;9.140;2023-03-21T08:51:19;13.30;99.90
22984;DHT22;11658;48.908;9.140;2023-03-21T08:53:45;13.30;99.90
22984;DHT22;11658;48.908;9.140;2023-03-21T08:56:11;13.40;99.90
22984;DHT22;11658;48.908;9.140;2023-03-21T08:58:37;13.40;99.90
22984;DHT22;11658;48.908;9.140;2023-03-21T09:01:04;13.40;99.90
22984;DHT22;11658;48.908;9.140;2023-03-21T09:03:31;13.60;99.90
22984;DHT22;11658;48.908;9.140;2023-03-21T09:05:57;13.70;99.90
22984;DHT22;11658;48.908;9.140;2023-03-21T09:08:23;14.00;99.90
22984;DHT22;11658;48.908;9.140;2023-03-21T09:10:52;14.10;99.90
22984;DHT22;11658;48.908;9.140;2023-03-21T09:13:18;14.30;99.90
22984;DHT22;11658;48.908;9.140;2023-03-21T09:15:44;14.50;99.90
22984;DHT22;11658;48.908;9.140;2023-03-21T09:18:10;14.40;99.90
22984;DHT22;11658;48.908;9.140;2023-03-21T09:20:41;14.30;99.90
22984;DHT22;11658;48.908;9.140;2023-03-21T09:23:07;14.30;99.90
22984;DHT22;11658;48.908;9.140;2023-03-21T09:25:33;14.30;99.90
22984;DHT22;11658;48.908;9.140;2023-03-21T09:28:00;14.50;99.90
22984;DHT22;11658;48.908;9.140;2023-03-21T09:30:28;14.80;99.90
22984;DHT22;11658;48.908;9.140;2023-03-21T09:32:54;14.90;99.90
22984;DHT22;11658;48.908;9.140;2023-03-21T09:35:20;14.90;99.90
22984;DHT22;11658;48.908;9.140;2023-03-21T09:37:47;14.70;99.90
22984;DHT22;11658;48.908;9.140;2023-03-21T09:40:17;14.40;99.90
22984;DHT22;11658;48.908;9.140;2023-03-21T09:43:11;14.20;99.90
22984;DHT22;11658;48.908;9.140;2023-03-21T09:46:09;14.60;99.90
22984;DHT22;11658;48.908;9.140;2023-03-21T09:48:49;14.80;99.90
22984;DHT22;11658;48.908;9.140;2023-03-21T09:51:15;14.90;99.90
22984;DHT22;11658;48.908;9.140;2023-03-21T09:53:44;15.00;99.90
22984;DHT22;11658;48.908;9.140;2023-03-21T09:56:12;15.30;99.90
22984;DHT22;11658;48.908;9.140;2023-03-21T09:58:48;15.50;99.90
22984;DHT22;11658;48.908;9.140;2023-03-21T10:01:31;15.40;99.90
22984;DHT22;11658;48.908;9.140;2023-03-21T10:04:07;15.60;99.90
22984;DHT22;11658;48.908;9.140;2023-03-21T10:06:37;15.70;99.90
22984;DHT22;11658;48.908;9.140;2023-03-21T10:09:07;15.90;99.90
22984;DHT22;11658;48.908;9.140;2023-03-21T10:11:58;16.20;99.90
22984;DHT22;11658;48.908;9.140;2023-03-21T10:14:30;16.10;99.90
22984;DHT22;11658;48.908;9.140;2023-03-21T10:17:01;16.40;99.90
22984;DHT22;11658;48.908;9.140;2023-03-21T10:19:28;16.50;99.90
22984;DHT22;11658;48.908;9.140;2023-03-21T10:21:55;16.50;99.90
22984;DHT22;11658;48.908;9.140;2023-03-21T10:24:24;16.70;99.90
22984;DHT22;11658;48.908;9.140;2023-03-21T10:26:52;16.90;99.90
22984;DHT22;11658;48.908;9.140;2023-03-21T10:29:21;17.10;99.90
22984;DHT22;11658;48.908;9.140;2023-03-21T10:31:49;16.60;99.90
22984;DHT22;11658;48.908;9.140;2023-03-21T10:36:53;16.40;99.90
22984;DHT22;11658;48.908;9.140;2023-03-21T10:39:38;16.90;99.90
22984;DHT22;11658;48.908;9.140;2023-03-21T10:42:05;16.90;99.90
22984;DHT22;11658;48.908;9.140;2023-03-21T10:44:33;16.80;99.90
22984;DHT22;11658;48.908;9.140;2023-03-21T10:47:06;16.70;99.90
22984;DHT22;11658;48.908;9.140;2023-03-21T10:49:35;16.50;99.90
22984;DHT22;11658;48.908;9.140;2023-03-21T10:52:06;16.50;99.90
22984;DHT22;11658;48.908;9.140;2023-03-21T10:54:33;16.50;99.90
22984;DHT22;11658;48.908;9.140;2023-03-21T10:57:21;16.40;99.90
22984;DHT22;11658;48.908;9.140;2023-03-21T10:59:56;16.60;99.90
22984;DHT22;11658;48.908;9.140;2023-03-21T11:02:33;17.00;99.90
22984;DHT22;11658;48.908;9.140;2023-03-21T11:05:04;17.40;99.90
22984;DHT22;11658;48.908;9.140;2023-03-21T11:07:30;17.60;99.90
22984;DHT22;11658;48.908;9.140;2023-03-21T11:09:58;17.70;99.90
22984;DHT22;11658;48.908;9.140;2023-03-21T11:12:38;18.00;99.90
22984;DHT22;11658;48.908;9.140;2023-03-21T11:17:54;18.00;99.90
22984;DHT22;11658;48.908;9.140;2023-03-21T11:20:20;18.10;99.90
22984;DHT22;11658;48.908;9.140;2023-03-21T11:22:47;18.20;99.90
22984;DHT22;11658;48.908;9.140;2023-03-21T11:25:26;17.60;99.90
22984;DHT22;11658;48.908;9.140;2023-03-21T11:27:56;17.40;99.90
22984;DHT22;11658;48.908;9.140;2023-03-21T11:30:25;17.40;99.90
22984;DHT22;11658;48.908;9.140;2023-03-21T11:32:55;17.30;99.90
22984;DHT22;11658;48.908;9.140;2023-03-21T11:35:32;17.70;99.90
22984;DHT22;11658;48.908;9.140;2023-03-21T11:37:57;17.40;99.90
22984;DHT22;11658;48.908;9.140;2023-03-21T11:42:55;17.30;99.90
22984;DHT22;11658;48.908;9.140;2023-03-21T11:47:51;17.50;99.90
22984;DHT22;11658;48.908;9.140;2023-03-21T12:04:03;16.80;99.90
22984;DHT22;11658;48.908;9.140;2023-03-21T12:06:34;16.60;99.90
22984;DHT22;11658;48.908;9.140;2023-03-21T12:14:39;16.10;99.90
22984;DHT22;11658;48.908;9.140;2023-03-21T12:24:56;16.00;99.90
22984;DHT22;11658;48.908;9.140;2023-03-21T12:27:49;16.10;99.90
22984;DHT22;11658;48.908;9.140;2023-03-21T12:33:23;16.50;99.90
22984;DHT22;11658;48.908;9.140;2023-03-21T12:35:53;16.70;99.90
22984;DHT22;11658;48.908;9.140;2023-03-21T12:38:35;17.00;99.90
22984;DHT22;11658;48.908;9.140;2023-03-21T12:44:04;17.90;99.90
22984;DHT22;11658;48.908;9.140;2023-03-21T12:46:46;17.70;99.90
22984;DHT22;11658;48.908;9.140;2023-03-21T12:49:22;17.50;99.90
22984;DHT22;11658;48.908;9.140;2023-03-21T12:51:50;17.50;99.90
22984;DHT22;11658;48.908;9.140;2023-03-21T13:02:33;17.80;99.90
22984;DHT22;11658;48.908;9.140;2023-03-21T13:07:32;17.40;99.90
22984;DHT22;11658;48.908;9.140;2023-03-21T13:10:00;17.50;99.90
22984;DHT22;11658;48.908;9.140;2023-03-21T13:12:35;17.70;99.90
22984;DHT22;11658;48.908;9.140;2023-03-21T13:15:16;17.70;99.90
22984;DHT22;11658;48.908;9.140;2023-03-21T13:20:51;17.70;99.90
22984;DHT22;11658;48.908;9.140;2023-03-21T13:23:21;17.70;99.90
22984;DHT22;11658;48.908;9.140;2023-03-21T13:25:51;17.40;99.90
22984;DHT22;11658;48.908;9.140;2023-03-21T13:28:26;17.40;99.90
22984;DHT22;11658;48.908;9.140;2023-03-21T13:30:53;17.40;99.90
22984;DHT22;11658;48.908;9.140;2023-03-21T13:33:39;17.00;99.90
22984;DHT22;11658;48.908;9.140;2023-03-21T13:36:13;16.90;99.90
22984;DHT22;11658;48.908;9.140;2023-03-21T13:38:39;17.10;99.90
22984;DHT22;11658;48.908;9.140;2023-03-21T13:41:08;17.10;99.90
22984;DHT22;11658;48.908;9.140;2023-03-21T13:44:47;17.20;99.90
22984;DHT22;11658;48.908;9.140;2023-03-21T13:47:21;17.40;99.90
22984;DHT22;11658;48.908;9.140;2023-03-21T13:55:30;17.40;99.90
22984;DHT22;11658;48.908;9.140;2023-03-21T13:58:23;17.40;99.90
22984;DHT22;11658;48.908;9.140;2023-03-21T14:03:45;17.50;99.90
22984;DHT22;11658;48.908;9.140;2023-03-21T14:06:12;17.40;99.90
22984;DHT22;11658;48.908;9.140;2023-03-21T14:08:40;17.40;99.90
22984;DHT22;11658;48.908;9.140;2023-03-21T14:11:12;17.70;99.90
22984;DHT22;11658;48.908;9.140;2023-03-21T14:13:41;17.20;99.90
22984;DHT22;11658;48.908;9.140;2023-03-21T14:16:17;16.70;99.90
22984;DHT22;11658;48.908;9.140;2023-03-21T14:21:17;16.40;99.90
22984;DHT22;11658;48.908;9.140;2023-03-21T14:23:44;16.10;99.90
22984;DHT22;11658;48.908;9.140;2023-03-21T14:26:11;16.10;99.90
22984;DHT22;11658;48.908;9.140;2023-03-21T14:28:43;16.10;99.90
22984;DHT22;11658;48.908;9.140;2023-03-21T14:31:13;16.20;99.90
22984;DHT22;11658;48.908;9.140;2023-03-21T14:33:50;16.10;99.90
22984;DHT22;11658;48.908;9.140;2023-03-21T14:36:24;15.90;99.90
22984;DHT22;11658;48.908;9.140;2023-03-21T14:39:20;15.80;99.90
22984;DHT22;11658;48.908;9.140;2023-03-21T14:41:53;15.90;99.90
22984;DHT22;11658;48.908;9.140;2023-03-21T14:44:31;16.10;99.90
22984;DHT22;11658;48.908;9.140;2023-03-21T14:47:18;16.30;99.90
22984;DHT22;11658;48.908;9.140;2023-03-21T14:49:44;16.40;99.90
22984;DHT22;11658;48.908;9.140;2023-03-21T14:52:12;16.20;99.90
22984;DHT22;11658;48.908;9.140;2023-03-21T14:54:40;16.10;99.90
22984;DHT22;11658;48.908;9.140;2023-03-21T14:57:10;15.90;99.90
22984;DHT22;11658;48.908;9.140;2023-03-21T14:59:38;15.80;99.90
22984;DHT22;11658;48.908;9.140;2023-03-21T15:08:15;16.70;99.90
22984;DHT22;11658;48.908;9.140;2023-03-21T15:10:49;16.60;99.90
22984;DHT22;11658;48.908;9.140;2023-03-21T15:13:21;16.50;99.90
22984;DHT22;11658;48.908;9.140;2023-03-21T15:15:47;16.00;99.90
22984;DHT22;11658;48.908;9.140;2023-03-21T15:18:24;15.70;99.90
22984;DHT22;11658;48.908;9.140;2023-03-21T15:20:50;15.80;99.90
22984;DHT22;11658;48.908;9.140;2023-03-21T15:25:54;15.50;99.90
22984;DHT22;11658;48.908;9.140;2023-03-21T15:28:20;15.70;99.90
22984;DHT22;11658;48.908;9.140;2023-03-21T15:30:48;15.70;99.90
22984;DHT22;11658;48.908;9.140;2023-03-21T15:33:15;16.00;99.90
22984;DHT22;11658;48.908;9.140;2023-03-21T15:35:52;16.30;99.90
22984;DHT22;11658;48.908;9.140;2023-03-21T15:43:44;15.80;99.90
22984;DHT22;11658;48.908;9.140;2023-03-21T15:46:24;15.70;99.90
22984;DHT22;11658;48.908;9.140;2023-03-21T15:51:46;15.30;99.90
22984;DHT22;11658;48.908;9.140;2023-03-21T15:54:15;15.20;99.90
22984;DHT22;11658;48.908;9.140;2023-03-21T15:56:42;14.90;99.90
22984;DHT22;11658;48.908;9.140;2023-03-21T15:59:13;14.70;99.90
22984;DHT22;11658;48.908;9.140;2023-03-21T16:01:45;14.60;99.90
22984;DHT22;11658;48.908;9.140;2023-03-21T16:04:12;14.50;99.90
22984;DHT22;11658;48.908;9.140;2023-03-21T16:06:56;14.50;99.90
22984;DHT22;11658;48.908;9.140;2023-03-21T16:09:22;14.40;99.90
22984;DHT22;11658;48.908;9.140;2023-03-21T16:11:50;14.40;99.90
22984;DHT22;11658;48.908;9.140;2023-03-21T16:14:17;14.50;99.90
22984;DHT22;11658;48.908;9.140;2023-03-21T16:16:43;14.50;99.90
22984;DHT22;11658;48.908;9.140;2023-03-21T16:19:10;14.70;99.90
22984;DHT22;11658;48.908;9.140;2023-03-21T16:21:36;14.70;99.90
22984;DHT22;11658;48.908;9.140;2023-03-21T16:24:06;14.70;99.90
22984;DHT22;11658;48.908;9.140;2023-03-21T16:26:41;14.60;99.90
22984;DHT22;11658;48.908;9.140;2023-03-21T16:29:11;14.70;99.90
22984;DHT22;11658;48.908;9.140;2023-03-21T16:31:37;14.70;99.90
22984;DHT22;11658;48.908;9.140;2023-03-21T16:34:03;14.50;99.90
22984;DHT22;11658;48.908;9.140;2023-03-21T16:36:32;14.40;99.90
22984;DHT22;11658;48.908;9.140;2023-03-21T16:38:58;14.40;99.90
22984;DHT22;11658;48.908;9.140;2023-03-21T16:41:26;14.40;99.90
22984;DHT22;11658;48.908;9.140;2023-03-21T16:43:52;14.30;99.90
22984;DHT22;11658;48.908;9.140;2023-03-21T16:46:20;14.30;99.90
22984;DHT22;11658;48.908;9.140;2023-03-21T16:48:49;14.10;99.90
22984;DHT22;11658;48.908;9.140;2023-03-21T16:51:18;14.10;99.90
22984;DHT22;11658;48.908;9.140;2023-03-21T16:53:44;14.10;99.90
22984;DHT22;11658;48.908;9.140;2023-03-21T16:56:19;14.10;99.90
22984;DHT22;11658;48.908;9.140;2023-03-21T16:58:45;14.00;99.90
22984;DHT22;11658;48.908;9.140;2023-03-21T17:01:21;14.00;99.90
22984;DHT22;11658;48.908;9.140;2023-03-21T17:03:52;13.90;99.90
22984;DHT22;11658;48.908;9.140;2023-03-21T17:06:20;13.90;99.90
22984;DHT22;11658;48.908;9.140;2023-03-21T17:08:46;13.80;99.90
22984;DHT22;11658;48.908;9.140;2023-03-21T17:11:15;13.80;99.90
22984;DHT22;11658;48.908;9.140;2023-03-21T17:13:48;13.70;99.90
22984;DHT22;11658;48.908;9.140;2023-03-21T17:16:17;13.80;99.90
22984;DHT22;11658;48.908;9.140;2023-03-21T17:18:43;13.80;99.90
22984;DHT22;11658;48.908;9.140;2023-03-21T17:21:14;13.80;99.90
22984;DHT22;11658;48.908;9.140;2023-03-21T17:23:40;13.80;99.90
22984;DHT22;11658;48.908;9.140;2023-03-21T17:26:06;13.80;99.90
22984;DHT22;11658;48.908;9.140;2023-03-21T17:28:35;13.70;99.90
22984;DHT22;11658;48.908;9.140;2023-03-21T17:31:01;13.80;99.90
22984;DHT22;11658;48.908;9.140;2023-03-21T17:33:26;13.70;99.90
22984;DHT22;11658;48.908;9.140;2023-03-21T17:35:52;13.70;99.90
22984;DHT22;11658;48.908;9.140;2023-03-21T17:38:18;13.70;99.90
22984;DHT22;11658;48.908;9.140;2023-03-21T17:40:43;13.60;99.90
22984;DHT22;11658;48.908;9.140;2023-03-21T17:43:14;13.50;99.90
22984;DHT22;11658;48.908;9.140;2023-03-21T17:45:41;13.60;99.90
22984;DHT22;11658;48.908;9.140;2023-03-21T17:48:06;13.60;99.90
22984;DHT22;11658;48.908;9.140;2023-03-21T17:50:32;13.60;99.90
22984;DHT22;11658;48.908;9.140;2023-03-21T17:52:59;13.60;99.90
22984;DHT22;11658;48.908;9.140;2023-03-21T17:55:25;13.60;99.90
22984;DHT22;11658;48.908;9.140;2023-03-21T17:57:50;13.60;99.90
22984;DHT22;11658;48.908;9.140;2023-03-21T18:00:19;13.60;99.90
22984;DHT22;11658;48.908;9.140;2023-03-21T18:02:47;13.60;99.90
22984;DHT22;11658;48.908;9.140;2023-03-21T18:05:13;13.60;99.90
22984;DHT22;11658;48.908;9.140;2023-03-21T18:07:39;13.60;99.90
22984;DHT22;11658;48.908;9.140;2023-03-21T18:10:13;13.60;99.90
22984;DHT22;11658;48.908;9.140;2023-03-21T18:12:39;13.60;99.90
22984;DHT22;11658;48.908;9.140;2023-03-21T18:15:06;13.60;99.90
22984;DHT22;11658;48.908;9.140;2023-03-21T18:17:32;13.60;99.90
22984;DHT22;11658;48.908;9.140;2023-03-21T18:19:58;13.60;99.90
22984;DHT22;11658;48.908;9.140;2023-03-21T18:22:23;13.50;99.90
22984;DHT22;11658;48.908;9.140;2023-03-21T18:24:49;13.40;99.90
22984;DHT22;11658;48.908;9.140;2023-03-21T18:27:15;13.40;99.90
22984;DHT22;11658;48.908;9.140;2023-03-21T18:29:40;13.40;99.90
22984;DHT22;11658;48.908;9.140;2023-03-21T18:32:06;13.30;99.90
22984;DHT22;11658;48.908;9.140;2023-03-21T18:34:33;13.30;99.90
22984;DHT22;11658;48.908;9.140;2023-03-21T18:36:58;13.30;99.90
22984;DHT22;11658;48.908;9.140;2023-03-21T18:39:24;13.60;99.90
22984;DHT22;11658;48.908;9.140;2023-03-21T18:41:49;13.10;99.90
22984;DHT22;11658;48.908;9.140;2023-03-21T18:44:15;13.20;99.90
22984;DHT22;11658;48.908;9.140;2023-03-21T18:46:44;13.20;99.90
22984;DHT22;11658;48.908;9.140;2023-03-21T18:49:16;13.20;99.90
22984;DHT22;11658;48.908;9.140;2023-03-21T18:51:41;13.20;99.90
22984;DHT22;11658;48.908;9.140;2023-03-21T18:54:09;13.20;99.90
22984;DHT22;11658;48.908;9.140;2023-03-21T18:56:37;13.30;99.90
22984;DHT22;11658;48.908;9.140;2023-03-21T18:59:03;13.30;99.90
22984;DHT22;11658;48.908;9.140;2023-03-21T19:01:30;13.30;99.90
22984;DHT22;11658;48.908;9.140;2023-03-21T19:03:55;13.30;99.90
22984;DHT22;11658;48.908;9.140;2023-03-21T19:06:25;13.20;99.90
22984;DHT22;11658;48.908;9.140;2023-03-21T19:08:51;13.10;99.90
22984;DHT22;11658;48.908;9.140;2023-03-21T19:11:16;13.30;99.90
22984;DHT22;11658;48.908;9.140;2023-03-21T19:13:48;13.10;99.90
22984;DHT22;11658;48.908;9.140;2023-03-21T19:16:15;13.20;99.90
22984;DHT22;11658;48.908;9.140;2023-03-21T19:18:40;13.20;99.90
22984;DHT22;11658;48.908;9.140;2023-03-21T19:21:06;13.10;99.90
22984;DHT22;11658;48.908;9.140;2023-03-21T19:23:32;13.10;99.90
22984;DHT22;11658;48.908;9.140;2023-03-21T19:25:58;12.90;99.90
22984;DHT22;11658;48.908;9.140;2023-03-21T19:28:24;13.00;99.90
22984;DHT22;11658;48.908;9.140;2023-03-21T19:30:49;13.10;99.90
22984;DHT22;11658;48.908;9.140;2023-03-21T19:33:15;13.10;99.90
22984;DHT22;11658;48.908;9.140;2023-03-21T19:35:42;13.10;99.90
22984;DHT22;11658;48.908;9.140;2023-03-21T19:38:08;13.10;99.90
22984;DHT22;11658;48.908;9.140;2023-03-21T19:40:38;13.20;99.90
22984;DHT22;11658;48.908;9.140;2023-03-21T19:43:03;13.00;99.90
22984;DHT22;11658;48.908;9.140;2023-03-21T19:45:29;13.10;99.90
22984;DHT22;11658;48.908;9.140;2023-03-21T19:47:54;13.10;99.90
22984;DHT22;11658;48.908;9.140;2023-03-21T19:50:20;13.00;99.90
22984;DHT22;11658;48.908;9.140;2023-03-21T19:52:46;13.00;99.90
22984;DHT22;11658;48.908;9.140;2023-03-21T19:55:11;13.00;99.90
22984;DHT22;11658;48.908;9.140;2023-03-21T19:57:39;13.00;99.90
22984;DHT22;11658;48.908;9.140;2023-03-21T20:00:05;13.00;99.90
22984;DHT22;11658;48.908;9.140;2023-03-21T20:02:35;13.00;99.90
22984;DHT22;11658;48.908;9.140;2023-03-21T20:05:01;13.00;99.90
22984;DHT22;11658;48.908;9.140;2023-03-21T20:07:26;13.00;99.90
22984;DHT22;11658;48.908;9.140;2023-03-21T20:09:52;13.00;99.90
22984;DHT22;11658;48.908;9.140;2023-03-21T20:12:18;12.90;99.90
22984;DHT22;11658;48.908;9.140;2023-03-21T20:14:43;13.00;99.90
22984;DHT22;11658;48.908;9.140;2023-03-21T20:17:12;13.00;99.90
22984;DHT22;11658;48.908;9.140;2023-03-21T20:19:37;12.90;99.90
22984;DHT22;11658;48.908;9.140;2023-03-21T20:22:03;12.90;99.90
22984;DHT22;11658;48.908;9.140;2023-03-21T20:24:32;12.90;99.90
22984;DHT22;11658;48.908;9.140;2023-03-21T20:26:58;12.80;99.90
22984;DHT22;11658;48.908;9.140;2023-03-21T20:29:23;12.80;99.90
22984;DHT22;11658;48.908;9.140;2023-03-21T20:31:49;12.80;99.90
22984;DHT22;11658;48.908;9.140;2023-03-21T20:34:15;12.70;99.90
22984;DHT22;11658;48.908;9.140;2023-03-21T20:36:40;12.80;99.90
22984;DHT22;11658;48.908;9.140;2023-03-21T20:39:07;12.60;99.90
22984;DHT22;11658;48.908;9.140;2023-03-21T20:41:32;12.60;99.90
22984;DHT22;11658;48.908;9.140;2023-03-21T20:43:58;12.60;99.90
22984;DHT22;11658;48.908;9.140;2023-03-21T20:46:26;12.50;99.90
22984;DHT22;11658;48.908;9.140;2023-03-21T20:48:52;12.50;99.90
22984;DHT22;11658;48.908;9.140;2023-03-21T20:51:19;12.40;99.90
22984;DHT22;11658;48.908;9.140;2023-03-21T20:53:44;12.40;99.90
22984;DHT22;11658;48.908;9.140;2023-03-21T20:56:11;12.30;99.90
22984;DHT22;11658;48.908;9.140;2023-03-21T20:58:38;12.40;99.90
22984;DHT22;11658;48.908;9.140;2023-03-21T21:01:05;12.40;99.90
22984;DHT22;11658;48.908;9.140;2023-03-21T21:03:35;12.30;99.90
22984;DHT22;11658;48.908;9.140;2023-03-21T21:06:22;12.30;99.90